sensor_id;sensor_type;location;lat;lon;timestamp;P1;durP1;ratioP1;P2;durP2;ratioP2
33840;SDS011;20142;28.494;-16.312;2023-08-24T00:04:26;15.27;;;3.00;;
33840;SDS011;20142;28.494;-16.312;2023-08-24T00:09:27;20.30;;;2.70;;
33840;SDS011;20142;28.494;-16.312;2023-08-24T00:14:29;18.58;;;3.00;;
33840;SDS011;20142;28.494;-16.312;2023-08-24T00:19:31;17.70;;;2.97;;
33840;SDS011;20142;28.494;-16.312;2023-08-24T00:24:32;15.23;;;3.00;;
33840;SDS011;20142;28.494;-16.312;2023-08-24T00:29:34;18.42;;;2.90;;
33840;SDS011;20142;28.494;-16.312;2023-08-24T00:34:36;19.52;;;2.97;;
33840;SDS011;20142;28.494;-16.312;2023-08-24T00:39:37;21.88;;;3.70;;
33840;SDS011;20142;28.494;-16.312;2023-08-24T00:44:39;22.02;;;3.65;;
33840;SDS011;20142;28.494;-16.312;2023-08-24T00:49:41;23.58;;;3.33;;
33840;SDS011;20142;28.494;-16.312;2023-08-24T00:54:43;24.67;;;3.53;;
33840;SDS011;20142;28.494;-16.312;2023-08-24T00:59:45;23.60;;;3.03;;
33840;SDS011;20142;28.494;-16.312;2023-08-24T01:04:47;26.25;;;3.80;;
33840;SDS011;20142;28.494;-16.312;2023-08-24T01:09:49;20.25;;;3.42;;
33840;SDS011;20142;28.494;-16.312;2023-08-24T01:14:56;21.23;;;3.30;;
33840;SDS011;20142;28.494;-16.312;2023-08-24T01:20:14;20.65;;;4.10;;
33840;SDS011;20142;28.494;-16.312;2023-08-24T01:25:20;19.35;;;3.40;;
33840;SDS011;20142;28.494;-16.312;2023-08-24T01:30:47;15.40;;;2.45;;
33840;SDS011;20142;28.494;-16.312;2023-08-24T01:35:49;18.88;;;3.05;;
33840;SDS011;20142;28.494;-16.312;2023-08-24T01:46:14;13.77;;;2.65;;
33840;SDS011;20142;28.494;-16.312;2023-08-24T01:51:17;13.68;;;2.45;;
33840;SDS011;20142;28.494;-16.312;2023-08-24T01:56:20;12.10;;;2.25;;
33840;SDS011;20142;28.494;-16.312;2023-08-24T02:01:21;14.98;;;2.53;;
33840;SDS011;20142;28.494;-16.312;2023-08-24T02:06:23;11.98;;;2.40;;
33840;SDS011;20142;28.494;-16.312;2023-08-24T02:11:25;12.70;;;2.70;;
33840;SDS011;20142;28.494;-16.312;2023-08-24T02:16:27;11.00;;;2.20;;
33840;SDS011;20142;28.494;-16.312;2023-08-24T02:26:40;11.52;;;2.00;;
33840;SDS011;20142;28.494;-16.312;2023-08-24T02:31:41;7.32;;;1.52;;
33840;SDS011;20142;28.494;-16.312;2023-08-24T02:36:43;10.95;;;2.00;;
33840;SDS011;20142;28.494;-16.312;2023-08-24T02:41:45;11.30;;;1.83;;
33840;SDS011;20142;28.494;-16.312;2023-08-24T02:46:47;10.15;;;1.80;;
33840;SDS011;20142;28.494;-16.312;2023-08-24T02:51:50;9.18;;;1.73;;
33840;SDS011;20142;28.494;-16.312;2023-08-24T02:56:51;8.43;;;1.70;;
33840;SDS011;20142;28.494;-16.312;2023-08-24T03:01:54;9.80;;;1.60;;
33840;SDS011;20142;28.494;-16.312;2023-08-24T03:06:56;10.80;;;1.85;;
33840;SDS011;20142;28.494;-16.312;2023-08-24T03:11:58;6.25;;;1.50;;
33840;SDS011;20142;28.494;-16.312;2023-08-24T03:16:59;7.70;;;1.40;;
33840;SDS011;20142;28.494;-16.312;2023-08-24T03:22:01;9.98;;;1.77;;
33840;SDS011;20142;28.494;-16.312;2023-08-24T03:27:03;5.15;;;1.27;;
33840;SDS011;20142;28.494;-16.312;2023-08-24T03:32:04;11.40;;;2.38;;
33840;SDS011;20142;28.494;-16.312;2023-08-24T03:37:06;10.45;;;1.75;;
33840;SDS011;20142;28.494;-16.312;2023-08-24T03:42:08;10.77;;;2.35;;
33840;SDS011;20142;28.494;-16.312;2023-08-24T03:47:09;8.25;;;2.10;;
33840;SDS011;20142;28.494;-16.312;2023-08-24T03:52:11;9.45;;;2.17;;
33840;SDS011;20142;28.494;-16.312;2023-08-24T03:57:13;10.65;;;2.00;;
33840;SDS011;20142;28.494;-16.312;2023-08-24T04:02:16;7.30;;;1.80;;
33840;SDS011;20142;28.494;-16.312;2023-08-24T04:07:18;11.65;;;2.25;;
33840;SDS011;20142;28.494;-16.312;2023-08-24T04:12:19;9.88;;;1.95;;
33840;SDS011;20142;28.494;-16.312;2023-08-24T04:17:21;8.98;;;1.83;;
33840;SDS011;20142;28.494;-16.312;2023-08-24T04:22:23;18.58;;;2.50;;
33840;SDS011;20142;28.494;-16.312;2023-08-24T04:27:24;11.40;;;2.22;;
33840;SDS011;20142;28.494;-16.312;2023-08-24T04:32:27;12.20;;;2.08;;
33840;SDS011;20142;28.494;-16.312;2023-08-24T04:37:28;11.70;;;2.05;;
33840;SDS011;20142;28.494;-16.312;2023-08-24T04:42:30;15.18;;;2.28;;
33840;SDS011;20142;28.494;-16.312;2023-08-24T04:47:32;9.27;;;1.80;;
33840;SDS011;20142;28.494;-16.312;2023-08-24T04:52:33;8.70;;;1.70;;
33840;SDS011;20142;28.494;-16.312;2023-08-24T04:57:35;11.85;;;1.75;;
33840;SDS011;20142;28.494;-16.312;2023-08-24T05:02:37;5.65;;;1.58;;
33840;SDS011;20142;28.494;-16.312;2023-08-24T05:07:39;7.85;;;1.77;;
33840;SDS011;20142;28.494;-16.312;2023-08-24T05:12:41;7.18;;;1.60;;
33840;SDS011;20142;28.494;-16.312;2023-08-24T05:17:43;10.00;;;1.60;;
33840;SDS011;20142;28.494;-16.312;2023-08-24T05:22:44;6.97;;;1.65;;
33840;SDS011;20142;28.494;-16.312;2023-08-24T05:27:46;13.07;;;1.90;;
33840;SDS011;20142;28.494;-16.312;2023-08-24T05:32:48;16.40;;;2.45;;
33840;SDS011;20142;28.494;-16.312;2023-08-24T05:37:49;13.10;;;2.05;;
33840;SDS011;20142;28.494;-16.312;2023-08-24T05:42:51;12.40;;;2.00;;
33840;SDS011;20142;28.494;-16.312;2023-08-24T05:47:54;14.15;;;1.77;;
33840;SDS011;20142;28.494;-16.312;2023-08-24T05:52:55;10.77;;;1.90;;
33840;SDS011;20142;28.494;-16.312;2023-08-24T05:57:57;10.18;;;1.70;;
33840;SDS011;20142;28.494;-16.312;2023-08-24T06:02:59;16.83;;;2.00;;
33840;SDS011;20142;28.494;-16.312;2023-08-24T06:08:01;11.63;;;1.85;;
33840;SDS011;20142;28.494;-16.312;2023-08-24T06:13:02;13.23;;;1.95;;
33840;SDS011;20142;28.494;-16.312;2023-08-24T06:18:04;12.60;;;2.53;;
33840;SDS011;20142;28.494;-16.312;2023-08-24T06:23:06;11.90;;;2.30;;
33840;SDS011;20142;28.494;-16.312;2023-08-24T06:28:08;14.60;;;2.08;;
33840;SDS011;20142;28.494;-16.312;2023-08-24T06:33:10;12.68;;;2.45;;
33840;SDS011;20142;28.494;-16.312;2023-08-24T06:38:13;13.45;;;2.20;;
33840;SDS011;20142;28.494;-16.312;2023-08-24T06:43:14;22.90;;;2.50;;
33840;SDS011;20142;28.494;-16.312;2023-08-24T06:48:16;14.88;;;2.28;;
33840;SDS011;20142;28.494;-16.312;2023-08-24T06:53:18;24.33;;;2.83;;
33840;SDS011;20142;28.494;-16.312;2023-08-24T06:58:20;20.83;;;3.05;;
33840;SDS011;20142;28.494;-16.312;2023-08-24T07:03:21;16.83;;;2.97;;
33840;SDS011;20142;28.494;-16.312;2023-08-24T07:08:24;26.65;;;3.30;;
33840;SDS011;20142;28.494;-16.312;2023-08-24T07:13:27;29.88;;;3.88;;
33840;SDS011;20142;28.494;-16.312;2023-08-24T07:18:28;26.05;;;3.58;;
33840;SDS011;20142;28.494;-16.312;2023-08-24T07:23:30;22.60;;;3.13;;
33840;SDS011;20142;28.494;-16.312;2023-08-24T07:28:32;20.45;;;3.03;;
33840;SDS011;20142;28.494;-16.312;2023-08-24T07:33:33;16.83;;;3.00;;
33840;SDS011;20142;28.494;-16.312;2023-08-24T07:38:35;28.80;;;3.17;;
33840;SDS011;20142;28.494;-16.312;2023-08-24T07:43:37;23.55;;;2.60;;
33840;SDS011;20142;28.494;-16.312;2023-08-24T07:48:38;28.52;;;3.20;;
33840;SDS011;20142;28.494;-16.312;2023-08-24T07:53:40;17.95;;;3.08;;
33840;SDS011;20142;28.494;-16.312;2023-08-24T07:58:42;16.92;;;2.33;;
33840;SDS011;20142;28.494;-16.312;2023-08-24T08:03:43;16.40;;;2.40;;
33840;SDS011;20142;28.494;-16.312;2023-08-24T08:08:45;20.65;;;2.63;;
33840;SDS011;20142;28.494;-16.312;2023-08-24T08:13:47;14.85;;;2.20;;
33840;SDS011;20142;28.494;-16.312;2023-08-24T08:18:49;17.63;;;2.75;;
33840;SDS011;20142;28.494;-16.312;2023-08-24T08:23:50;8.65;;;2.00;;
33840;SDS011;20142;28.494;-16.312;2023-08-24T08:28:52;12.32;;;2.28;;
33840;SDS011;20142;28.494;-16.312;2023-08-24T08:33:54;13.48;;;1.88;;
33840;SDS011;20142;28.494;-16.312;2023-08-24T08:38:55;16.45;;;2.80;;
33840;SDS011;20142;28.494;-16.312;2023-08-24T08:43:57;13.27;;;2.25;;
33840;SDS011;20142;28.494;-16.312;2023-08-24T08:49:00;10.70;;;2.22;;
33840;SDS011;20142;28.494;-16.312;2023-08-24T08:54:06;10.95;;;2.05;;
33840;SDS011;20142;28.494;-16.312;2023-08-24T08:59:08;17.00;;;2.35;;
33840;SDS011;20142;28.494;-16.312;2023-08-24T14:39:21;24.00;;;5.70;;
33840;SDS011;20142;28.494;-16.312;2023-08-24T14:44:29;22.70;;;5.15;;
33840;SDS011;20142;28.494;-16.312;2023-08-24T14:49:31;19.80;;;6.35;;
33840;SDS011;20142;28.494;-16.312;2023-08-24T14:54:33;21.48;;;5.90;;
33840;SDS011;20142;28.494;-16.312;2023-08-24T14:59:34;27.48;;;5.72;;
33840;SDS011;20142;28.494;-16.312;2023-08-24T15:04:36;16.95;;;4.80;;
33840;SDS011;20142;28.494;-16.312;2023-08-24T15:09:38;20.23;;;4.50;;
33840;SDS011;20142;28.494;-16.312;2023-08-24T15:14:45;16.38;;;4.93;;
33840;SDS011;20142;28.494;-16.312;2023-08-24T15:19:59;14.60;;;4.25;;
33840;SDS011;20142;28.494;-16.312;2023-08-24T15:25:00;22.58;;;4.50;;
33840;SDS011;20142;28.494;-16.312;2023-08-24T15:30:02;21.95;;;4.80;;
33840;SDS011;20142;28.494;-16.312;2023-08-24T15:35:05;18.27;;;4.80;;
33840;SDS011;20142;28.494;-16.312;2023-08-24T15:40:07;17.10;;;4.75;;
33840;SDS011;20142;28.494;-16.312;2023-08-24T15:45:11;16.35;;;4.57;;
33840;SDS011;20142;28.494;-16.312;2023-08-24T15:50:12;14.48;;;3.88;;
33840;SDS011;20142;28.494;-16.312;2023-08-24T15:55:14;15.68;;;3.85;;
33840;SDS011;20142;28.494;-16.312;2023-08-24T16:00:16;17.35;;;3.55;;
33840;SDS011;20142;28.494;-16.312;2023-08-24T16:05:18;23.83;;;4.40;;
33840;SDS011;20142;28.494;-16.312;2023-08-24T16:10:20;17.52;;;4.57;;
33840;SDS011;20142;28.494;-16.312;2023-08-24T16:15:21;16.13;;;4.25;;
33840;SDS011;20142;28.494;-16.312;2023-08-24T16:20:23;17.35;;;3.88;;
33840;SDS011;20142;28.494;-16.312;2023-08-24T16:25:25;17.05;;;4.57;;
33840;SDS011;20142;28.494;-16.312;2023-08-24T16:30:26;13.93;;;3.63;;
33840;SDS011;20142;28.494;-16.312;2023-08-24T16:35:28;17.25;;;4.03;;
33840;SDS011;20142;28.494;-16.312;2023-08-24T16:40:33;15.55;;;3.83;;
33840;SDS011;20142;28.494;-16.312;2023-08-24T16:45:37;13.70;;;3.58;;
33840;SDS011;20142;28.494;-16.312;2023-08-24T16:50:39;12.27;;;3.47;;
33840;SDS011;20142;28.494;-16.312;2023-08-24T16:55:43;20.90;;;4.43;;
33840;SDS011;20142;28.494;-16.312;2023-08-24T17:00:44;21.90;;;4.10;;
33840;SDS011;20142;28.494;-16.312;2023-08-24T17:05:46;15.18;;;4.15;;
33840;SDS011;20142;28.494;-16.312;2023-08-24T17:10:50;16.83;;;3.67;;
33840;SDS011;20142;28.494;-16.312;2023-08-24T17:15:52;11.35;;;3.60;;
33840;SDS011;20142;28.494;-16.312;2023-08-24T17:20:54;13.68;;;3.33;;
33840;SDS011;20142;28.494;-16.312;2023-08-24T17:25:55;13.18;;;3.50;;
33840;SDS011;20142;28.494;-16.312;2023-08-24T17:30:57;16.65;;;3.75;;
33840;SDS011;20142;28.494;-16.312;2023-08-24T17:35:59;11.80;;;3.33;;
33840;SDS011;20142;28.494;-16.312;2023-08-24T17:41:02;16.75;;;3.70;;
33840;SDS011;20142;28.494;-16.312;2023-08-24T17:46:05;16.75;;;3.85;;
33840;SDS011;20142;28.494;-16.312;2023-08-24T17:51:07;14.65;;;3.90;;
33840;SDS011;20142;28.494;-16.312;2023-08-24T17:56:09;13.00;;;3.40;;
33840;SDS011;20142;28.494;-16.312;2023-08-24T18:01:10;19.98;;;4.38;;
33840;SDS011;20142;28.494;-16.312;2023-08-24T18:06:12;21.27;;;4.40;;
33840;SDS011;20142;28.494;-16.312;2023-08-24T18:11:14;15.55;;;3.15;;
33840;SDS011;20142;28.494;-16.312;2023-08-24T18:16:15;16.58;;;4.45;;
33840;SDS011;20142;28.494;-16.312;2023-08-24T18:21:17;16.95;;;4.60;;
33840;SDS011;20142;28.494;-16.312;2023-08-24T18:26:19;12.10;;;4.03;;
33840;SDS011;20142;28.494;-16.312;2023-08-24T18:31:21;22.08;;;4.63;;
33840;SDS011;20142;28.494;-16.312;2023-08-24T18:36:24;17.73;;;4.00;;
33840;SDS011;20142;28.494;-16.312;2023-08-24T18:41:26;18.33;;;3.47;;
33840;SDS011;20142;28.494;-16.312;2023-08-24T18:46:28;18.50;;;3.97;;
33840;SDS011;20142;28.494;-16.312;2023-08-24T18:51:29;18.10;;;3.97;;
33840;SDS011;20142;28.494;-16.312;2023-08-24T18:56:31;17.17;;;3.95;;
33840;SDS011;20142;28.494;-16.312;2023-08-24T19:01:33;17.10;;;3.80;;
33840;SDS011;20142;28.494;-16.312;2023-08-24T19:06:35;22.77;;;3.58;;
33840;SDS011;20142;28.494;-16.312;2023-08-24T19:11:36;19.13;;;4.13;;
33840;SDS011;20142;28.494;-16.312;2023-08-24T19:16:38;16.83;;;3.60;;
33840;SDS011;20142;28.494;-16.312;2023-08-24T19:21:40;14.18;;;3.45;;
33840;SDS011;20142;28.494;-16.312;2023-08-24T19:26:42;16.00;;;3.53;;
33840;SDS011;20142;28.494;-16.312;2023-08-24T19:31:43;11.68;;;3.40;;
33840;SDS011;20142;28.494;-16.312;2023-08-24T19:36:45;18.33;;;3.75;;
33840;SDS011;20142;28.494;-16.312;2023-08-24T19:41:47;12.90;;;3.63;;
33840;SDS011;20142;28.494;-16.312;2023-08-24T19:46:48;16.42;;;3.50;;
33840;SDS011;20142;28.494;-16.312;2023-08-24T19:51:50;14.02;;;2.80;;
33840;SDS011;20142;28.494;-16.312;2023-08-24T19:56:52;19.15;;;3.47;;
33840;SDS011;20142;28.494;-16.312;2023-08-24T20:01:54;21.00;;;3.50;;
33840;SDS011;20142;28.494;-16.312;2023-08-24T20:06:56;14.45;;;3.08;;
33840;SDS011;20142;28.494;-16.312;2023-08-24T20:11:58;20.08;;;3.40;;
33840;SDS011;20142;28.494;-16.312;2023-08-24T20:17:00;15.70;;;3.28;;
33840;SDS011;20142;28.494;-16.312;2023-08-24T20:22:01;14.05;;;3.45;;
33840;SDS011;20142;28.494;-16.312;2023-08-24T20:27:03;21.77;;;3.20;;
33840;SDS011;20142;28.494;-16.312;2023-08-24T20:32:05;12.15;;;3.08;;
33840;SDS011;20142;28.494;-16.312;2023-08-24T20:37:06;14.88;;;2.80;;
33840;SDS011;20142;28.494;-16.312;2023-08-24T20:42:15;12.30;;;2.90;;
33840;SDS011;20142;28.494;-16.312;2023-08-24T20:47:28;13.02;;;3.65;;
33840;SDS011;20142;28.494;-16.312;2023-08-24T20:52:30;12.57;;;3.05;;
33840;SDS011;20142;28.494;-16.312;2023-08-24T20:57:32;16.20;;;3.65;;
33840;SDS011;20142;28.494;-16.312;2023-08-24T21:02:34;19.00;;;3.50;;
33840;SDS011;20142;28.494;-16.312;2023-08-24T21:07:36;21.65;;;4.22;;
33840;SDS011;20142;28.494;-16.312;2023-08-24T21:12:38;18.13;;;4.22;;
33840;SDS011;20142;28.494;-16.312;2023-08-24T21:17:40;20.88;;;4.05;;
33840;SDS011;20142;28.494;-16.312;2023-08-24T21:22:42;17.73;;;3.80;;
33840;SDS011;20142;28.494;-16.312;2023-08-24T21:27:43;19.27;;;3.92;;
33840;SDS011;20142;28.494;-16.312;2023-08-24T21:32:45;14.60;;;3.72;;
33840;SDS011;20142;28.494;-16.312;2023-08-24T21:37:47;24.02;;;4.00;;
33840;SDS011;20142;28.494;-16.312;2023-08-24T21:42:49;14.70;;;2.97;;
33840;SDS011;20142;28.494;-16.312;2023-08-24T21:47:50;22.38;;;3.55;;
33840;SDS011;20142;28.494;-16.312;2023-08-24T21:52:52;14.05;;;3.65;;
33840;SDS011;20142;28.494;-16.312;2023-08-24T21:57:55;12.57;;;2.95;;
33840;SDS011;20142;28.494;-16.312;2023-08-24T22:02:56;8.55;;;2.55;;
33840;SDS011;20142;28.494;-16.312;2023-08-24T22:07:58;15.25;;;3.10;;
33840;SDS011;20142;28.494;-16.312;2023-08-24T22:13:00;13.65;;;3.33;;
33840;SDS011;20142;28.494;-16.312;2023-08-24T22:18:01;12.73;;;3.13;;
33840;SDS011;20142;28.494;-16.312;2023-08-24T22:23:03;12.15;;;2.70;;
33840;SDS011;20142;28.494;-16.312;2023-08-24T22:28:06;10.48;;;2.83;;
33840;SDS011;20142;28.494;-16.312;2023-08-24T22:33:08;18.40;;;3.30;;
33840;SDS011;20142;28.494;-16.312;2023-08-24T22:38:10;44.03;;;3.95;;
33840;SDS011;20142;28.494;-16.312;2023-08-24T22:43:11;9.68;;;2.58;;
33840;SDS011;20142;28.494;-16.312;2023-08-24T22:48:13;14.80;;;3.17;;
33840;SDS011;20142;28.494;-16.312;2023-08-24T22:53:15;12.63;;;3.08;;
33840;SDS011;20142;28.494;-16.312;2023-08-24T22:58:16;19.75;;;5.07;;
33840;SDS011;20142;28.494;-16.312;2023-08-24T23:03:18;17.60;;;3.90;;
33840;SDS011;20142;28.494;-16.312;2023-08-24T23:08:20;19.05;;;4.50;;
33840;SDS011;20142;28.494;-16.312;2023-08-24T23:13:21;17.50;;;3.78;;
33840;SDS011;20142;28.494;-16.312;2023-08-24T23:18:23;16.85;;;3.70;;
33840;SDS011;20142;28.494;-16.312;2023-08-24T23:23:25;13.63;;;3.28;;
33840;SDS011;20142;28.494;-16.312;2023-08-24T23:28:27;20.67;;;3.95;;
33840;SDS011;20142;28.494;-16.312;2023-08-24T23:33:28;14.07;;;4.25;;
33840;SDS011;20142;28.494;-16.312;2023-08-24T23:38:30;13.32;;;3.72;;
33840;SDS011;20142;28.494;-16.312;2023-08-24T23:43:32;17.77;;;3.78;;
33840;SDS011;20142;28.494;-16.312;2023-08-24T23:48:34;14.70;;;3.35;;
33840;SDS011;20142;28.494;-16.312;2023-08-24T23:53:35;16.25;;;3.47;;
33840;SDS011;20142;28.494;-16.312;2023-08-24T23:58:37;14.40;;;3.08;;
